Pacific Titan — WCZ6844 — position and weather

sailwx.info

Track history (hours):
 
Tides and Currents Weather Stations Pressure Air Temp Water Temp Dewpoint Dewpoint Depression Visibility Wind Speed Wind Dir Waves Ship Positions

Pacific Titan

Owner: WESTERN TOWBOAT CO, SEATTLE, WA. More information available from US FCC via Universal Licensing System and Coast Guard Vessel Documentation Center.

Last reported at 2017-Jan-24 20:33 UTC. Time now 2017-Jan-24 21:31 UTC.
Position N 49°12' W 123°35'.

Type: Tow > 200 m length. MMSI: 338855000.

Date/timePositionNaut miles runAvg speedWind from/ knotsBaromVisibWave heightAir tempDewpointWater temp
2017-Jan-24 20:33N 49°12' W 123°35'1010.0
2017-Jan-24 19:33N 49°19' W 123°46'1010.0
2017-Jan-24 18:33N 49°24' W 123°59'1010.3
2017-Jan-24 17:33N 49°31' W 124°12'1010.3
2017-Jan-24 16:33N 49°35' W 124°26'1010.1
2017-Jan-24 15:33N 49°41' W 124°38'1010.1
2017-Jan-24 14:33N 49°48' W 124°51'1010.2
2017-Jan-24 13:33N 49°54' W 125°03'9 9.2
2017-Jan-24 12:33N 50°01' W 125°13'9 9.0
2017-Jan-24 11:33N 50°08' W 125°21'1010.3
2017-Jan-24 10:33N 50°18' W 125°25'3610.4
2017-Jan-24 07:04N 50°30' W 126°19'610.3
2017-Jan-24 06:32N 50°30' W 126°28'11 9.4
2017-Jan-24 05:20N 50°36' W 126°43'810.5
2017-Jan-24 04:32N 50°41' W 126°53'1010.5
2017-Jan-24 03:33N 50°45' W 127°08'1110.6
2017-Jan-24 02:33N 50°52' W 127°20'21 9.5
2017-Jan-24 00:19N 51°06' W 127°46'7 8.8
2017-Jan-23 23:30N 51°13' W 127°52'9 9.5
2017-Jan-23 22:33N 51°22' W 127°53'1010.2
2017-Jan-23 21:33N 51°32' W 127°52'361 7.6
2017-Jan-21 22:00N 56°06' W 134°30'10 5.0 030 / 35 27.0 3.9
2017-Jan-21 20:00N 56°06' W 134°48'   050 / 201007.027.0
2017-Jan-15 19:06N 52°03' W 127°56'5 8.9
2017-Jan-15 18:33N 51°58' W 127°56'1010.2
2017-Jan-15 17:34N 51°48' W 127°56'1010.1
2017-Jan-15 16:33N 51°38' W 127°54'1010.0
2017-Jan-15 15:33N 51°28' W 127°51'10 9.8
2017-Jan-15 14:33N 51°19' W 127°53'1010.4
2017-Jan-15 13:33N 51°08' W 127°50'1010.3
2017-Jan-15 12:33N 51°02' W 127°37'9 9.3
2017-Jan-15 11:33N 50°56' W 127°26'10 9.6
2017-Jan-15 10:33N 50°49' W 127°15'10 9.6
2017-Jan-15 09:33N 50°44' W 127°02'10 8.9
2017-Jan-15 08:27N 50°39' W 126°49'4210.9
2017-Jan-15 04:33N 50°23' W 125°48'1312.1
2017-Jan-15 03:31N 50°20' W 125°28'9 9.4
2017-Jan-15 02:33N 50°12' W 125°22'7 7.0
2017-Jan-15 01:33N 50°06' W 125°17'5 5.5
2017-Jan-15 00:33N 50°01' W 125°13'4 3.7
2017-Jan-14 23:33N 49°58' W 125°10'5 4.6
2017-Jan-14 22:33N 49°55' W 125°05'6 5.6
2017-Jan-14 21:33N 49°52' W 124°58'5 4.7
2017-Jan-14 20:33N 49°49' W 124°52'  
Track history (hours):
 
Tides and Currents Weather Stations Pressure Air Temp Water Temp Dewpoint Dewpoint Depression Visibility Wind Speed Wind Dir Waves Ship Positions

Pacific Titan

Owner: WESTERN TOWBOAT CO, SEATTLE, WA. More information available from US FCC via Universal Licensing System and Coast Guard Vessel Documentation Center.

Last reported at 2017-Jan-24 20:33 UTC. Time now 2017-Jan-24 21:31 UTC.
Position N 49°12' W 123°35'.

Type: Tow > 200 m length. MMSI: 338855000.

Date/timePositionNaut miles runAvg speedWind from/ knotsBaromVisibWave heightAir tempDewpointWater temp
2017-Jan-24 20:33N 49°12' W 123°35'1010.0
2017-Jan-24 19:33N 49°19' W 123°46'1010.0
2017-Jan-24 18:33N 49°24' W 123°59'1010.3
2017-Jan-24 17:33N 49°31' W 124°12'1010.3
2017-Jan-24 16:33N 49°35' W 124°26'1010.1
2017-Jan-24 15:33N 49°41' W 124°38'1010.1
2017-Jan-24 14:33N 49°48' W 124°51'1010.2
2017-Jan-24 13:33N 49°54' W 125°03'9 9.2
2017-Jan-24 12:33N 50°01' W 125°13'9 9.0
2017-Jan-24 11:33N 50°08' W 125°21'1010.3
2017-Jan-24 10:33N 50°18' W 125°25'3610.4
2017-Jan-24 07:04N 50°30' W 126°19'610.3
2017-Jan-24 06:32N 50°30' W 126°28'11 9.4
2017-Jan-24 05:20N 50°36' W 126°43'810.5
2017-Jan-24 04:32N 50°41' W 126°53'1010.5
2017-Jan-24 03:33N 50°45' W 127°08'1110.6
2017-Jan-24 02:33N 50°52' W 127°20'21 9.5
2017-Jan-24 00:19N 51°06' W 127°46'7 8.8
2017-Jan-23 23:30N 51°13' W 127°52'9 9.5
2017-Jan-23 22:33N 51°22' W 127°53'1010.2
2017-Jan-23 21:33N 51°32' W 127°52'361 7.6
2017-Jan-21 22:00N 56°06' W 134°30'10 5.0 030 / 35 27.0 3.9
2017-Jan-21 20:00N 56°06' W 134°48'   050 / 201007.027.0
2017-Jan-15 19:06N 52°03' W 127°56'5 8.9
2017-Jan-15 18:33N 51°58' W 127°56'1010.2
2017-Jan-15 17:34N 51°48' W 127°56'1010.1
2017-Jan-15 16:33N 51°38' W 127°54'1010.0
2017-Jan-15 15:33N 51°28' W 127°51'10 9.8
2017-Jan-15 14:33N 51°19' W 127°53'1010.4
2017-Jan-15 13:33N 51°08' W 127°50'1010.3
2017-Jan-15 12:33N 51°02' W 127°37'9 9.3
2017-Jan-15 11:33N 50°56' W 127°26'10 9.6
2017-Jan-15 10:33N 50°49' W 127°15'10 9.6
2017-Jan-15 09:33N 50°44' W 127°02'10 8.9
2017-Jan-15 08:27N 50°39' W 126°49'4210.9
2017-Jan-15 04:33N 50°23' W 125°48'1312.1
2017-Jan-15 03:31N 50°20' W 125°28'9 9.4
2017-Jan-15 02:33N 50°12' W 125°22'7 7.0
2017-Jan-15 01:33N 50°06' W 125°17'5 5.5
2017-Jan-15 00:33N 50°01' W 125°13'4 3.7
2017-Jan-14 23:33N 49°58' W 125°10'5 4.6
2017-Jan-14 22:33N 49°55' W 125°05'6 5.6
2017-Jan-14 21:33N 49°52' W 124°58'5 4.7
2017-Jan-14 20:33N 49°49' W 124°52'  

Dump ship's entire track history